sensor_id;sensor_type;location;lat;lon;timestamp;pressure;altitude;pressure_sealevel;temperature;humidity
30339;BME280;795;49.296;11.348;2023-02-17T00:01:32;97144.34;;;3.84;100.00
30339;BME280;795;49.296;11.348;2023-02-17T00:04:00;97098.41;;;3.59;100.00
30339;BME280;795;49.296;11.348;2023-02-17T00:06:30;97143.19;;;3.76;100.00
30339;BME280;795;49.296;11.348;2023-02-17T00:08:58;97108.53;;;3.41;100.00
30339;BME280;795;49.296;11.348;2023-02-17T00:11:26;97106.50;;;3.45;100.00
30339;BME280;795;49.296;11.348;2023-02-17T00:13:54;97139.59;;;3.64;100.00
30339;BME280;795;49.296;11.348;2023-02-17T00:16:26;97116.63;;;3.76;100.00
30339;BME280;795;49.296;11.348;2023-02-17T00:18:59;97140.28;;;3.91;100.00
30339;BME280;795;49.296;11.348;2023-02-17T00:21:30;97140.81;;;3.96;100.00
30339;BME280;795;49.296;11.348;2023-02-17T00:23:58;97115.09;;;3.97;100.00
30339;BME280;795;49.296;11.348;2023-02-17T00:26:26;97064.03;;;3.81;100.00
30339;BME280;795;49.296;11.348;2023-02-17T00:28:53;97126.84;;;4.29;100.00
30339;BME280;795;49.296;11.348;2023-02-17T00:31:22;97099.25;;;4.19;100.00
30339;BME280;795;49.296;11.348;2023-02-17T00:33:54;97126.22;;;4.49;100.00
30339;BME280;795;49.296;11.348;2023-02-17T00:36:21;97033.41;;;4.12;100.00
30339;BME280;795;49.296;11.348;2023-02-17T00:38:48;97126.69;;;4.78;100.00
30339;BME280;795;49.296;11.348;2023-02-17T00:41:17;97106.56;;;4.87;100.00
30339;BME280;795;49.296;11.348;2023-02-17T00:43:46;97121.22;;;5.14;100.00
30339;BME280;795;49.296;11.348;2023-02-17T00:46:15;97122.34;;;5.45;100.00
30339;BME280;795;49.296;11.348;2023-02-17T00:48:43;97093.19;;;5.44;100.00
30339;BME280;795;49.296;11.348;2023-02-17T00:51:10;97126.13;;;5.76;100.00
30339;BME280;795;49.296;11.348;2023-02-17T00:53:37;97089.66;;;5.65;100.00
30339;BME280;795;49.296;11.348;2023-02-17T00:56:05;97066.69;;;5.64;100.00
30339;BME280;795;49.296;11.348;2023-02-17T00:58:34;97111.72;;;6.00;100.00
30339;BME280;795;49.296;11.348;2023-02-17T01:01:02;97066.53;;;5.88;100.00
30339;BME280;795;49.296;11.348;2023-02-17T01:03:29;97111.38;;;6.26;100.00
30339;BME280;795;49.296;11.348;2023-02-17T01:05:56;97115.81;;;6.47;100.00
30339;BME280;795;49.296;11.348;2023-02-17T01:08:24;97034.84;;;6.06;100.00
30339;BME280;795;49.296;11.348;2023-02-17T01:10:52;97104.66;;;6.42;100.00
30339;BME280;795;49.296;11.348;2023-02-17T01:13:20;97116.25;;;6.63;100.00
30339;BME280;795;49.296;11.348;2023-02-17T01:15:52;97100.94;;;6.65;100.00
30339;BME280;795;49.296;11.348;2023-02-17T01:18:22;97100.31;;;6.73;100.00
30339;BME280;795;49.296;11.348;2023-02-17T01:20:51;97079.06;;;6.72;100.00
30339;BME280;795;49.296;11.348;2023-02-17T01:23:19;97112.56;;;6.96;100.00
30339;BME280;795;49.296;11.348;2023-02-17T01:25:47;97109.19;;;6.94;100.00
30339;BME280;795;49.296;11.348;2023-02-17T01:28:20;97102.53;;;7.09;100.00
30339;BME280;795;49.296;11.348;2023-02-17T01:30:48;97090.41;;;7.05;100.00
30339;BME280;795;49.296;11.348;2023-02-17T01:33:15;97077.72;;;7.18;100.00
30339;BME280;795;49.296;11.348;2023-02-17T01:35:42;97082.00;;;7.10;100.00
30339;BME280;795;49.296;11.348;2023-02-17T01:38:09;97055.09;;;6.92;100.00
30339;BME280;795;49.296;11.348;2023-02-17T01:40:36;97046.03;;;6.84;100.00
30339;BME280;795;49.296;11.348;2023-02-17T01:43:08;97082.22;;;6.97;100.00
30339;BME280;795;49.296;11.348;2023-02-17T01:45:49;97063.59;;;6.86;100.00
30339;BME280;795;49.296;11.348;2023-02-17T01:48:28;97045.31;;;6.82;100.00
30339;BME280;795;49.296;11.348;2023-02-17T01:51:11;97079.03;;;7.03;100.00
30339;BME280;795;49.296;11.348;2023-02-17T01:53:50;97071.34;;;6.89;100.00
30339;BME280;795;49.296;11.348;2023-02-17T01:56:20;97061.06;;;6.85;100.00
30339;BME280;795;49.296;11.348;2023-02-17T01:59:04;97078.19;;;6.82;100.00
30339;BME280;795;49.296;11.348;2023-02-17T02:01:31;97036.78;;;6.67;100.00
30339;BME280;795;49.296;11.348;2023-02-17T02:04:03;97057.28;;;6.87;100.00
30339;BME280;795;49.296;11.348;2023-02-17T02:06:36;97036.22;;;6.63;100.00
30339;BME280;795;49.296;11.348;2023-02-17T02:09:20;97048.25;;;6.58;100.00
30339;BME280;795;49.296;11.348;2023-02-17T02:11:50;97045.59;;;6.47;100.00
30339;BME280;795;49.296;11.348;2023-02-17T02:14:20;97021.13;;;6.42;100.00
30339;BME280;795;49.296;11.348;2023-02-17T02:24:08;97030.66;;;6.76;100.00
30339;BME280;795;49.296;11.348;2023-02-17T02:27:20;97024.28;;;6.88;100.00
30339;BME280;795;49.296;11.348;2023-02-17T02:33:15;97022.34;;;6.90;100.00
30339;BME280;795;49.296;11.348;2023-02-17T02:36:19;96998.97;;;6.83;100.00
30339;BME280;795;49.296;11.348;2023-02-17T02:39:07;97013.34;;;6.91;100.00
30339;BME280;795;49.296;11.348;2023-02-17T02:41:47;97033.72;;;6.92;100.00
30339;BME280;795;49.296;11.348;2023-02-17T02:44:20;97022.19;;;6.92;100.00
30339;BME280;795;49.296;11.348;2023-02-17T02:47:29;97012.28;;;7.03;100.00
30339;BME280;795;49.296;11.348;2023-02-17T02:49:53;97021.59;;;7.09;99.96
30339;BME280;795;49.296;11.348;2023-02-17T02:52:45;97009.72;;;6.92;100.00
30339;BME280;795;49.296;11.348;2023-02-17T03:05:08;97003.47;;;6.82;100.00
30339;BME280;795;49.296;11.348;2023-02-17T03:08:19;96988.91;;;6.65;100.00
30339;BME280;795;49.296;11.348;2023-02-17T03:10:53;96989.88;;;6.64;100.00
30339;BME280;795;49.296;11.348;2023-02-17T03:13:21;96944.53;;;6.44;100.00
30339;BME280;795;49.296;11.348;2023-02-17T03:15:48;96976.59;;;6.53;100.00
30339;BME280;795;49.296;11.348;2023-02-17T03:18:15;96933.34;;;6.29;100.00
30339;BME280;795;49.296;11.348;2023-02-17T03:21:01;96984.28;;;6.67;100.00
30339;BME280;795;49.296;11.348;2023-02-17T03:23:30;96916.66;;;6.27;100.00
30339;BME280;795;49.296;11.348;2023-02-17T03:25:57;96942.84;;;6.43;100.00
30339;BME280;795;49.296;11.348;2023-02-17T03:28:24;96983.97;;;6.61;100.00
30339;BME280;795;49.296;11.348;2023-02-17T03:30:51;96972.22;;;6.52;100.00
30339;BME280;795;49.296;11.348;2023-02-17T03:33:18;96983.50;;;6.56;100.00
30339;BME280;795;49.296;11.348;2023-02-17T03:35:45;96989.94;;;6.53;100.00
30339;BME280;795;49.296;11.348;2023-02-17T03:38:12;96967.56;;;6.45;100.00
30339;BME280;795;49.296;11.348;2023-02-17T03:40:39;96986.22;;;6.45;100.00
30339;BME280;795;49.296;11.348;2023-02-17T03:43:06;96948.09;;;6.13;100.00
30339;BME280;795;49.296;11.348;2023-02-17T03:45:36;96983.34;;;6.16;100.00
30339;BME280;795;49.296;11.348;2023-02-17T03:48:03;96919.53;;;5.72;100.00
30339;BME280;795;49.296;11.348;2023-02-17T03:50:30;96969.06;;;6.06;100.00
30339;BME280;795;49.296;11.348;2023-02-17T03:52:57;96971.03;;;6.04;100.00
30339;BME280;795;49.296;11.348;2023-02-17T03:55:24;96956.75;;;6.05;100.00
30339;BME280;795;49.296;11.348;2023-02-17T03:57:51;96980.09;;;6.13;100.00
30339;BME280;795;49.296;11.348;2023-02-17T04:00:18;96989.75;;;6.14;100.00
30339;BME280;795;49.296;11.348;2023-02-17T04:02:46;96972.47;;;6.08;100.00
30339;BME280;795;49.296;11.348;2023-02-17T04:05:12;96921.94;;;5.75;100.00
30339;BME280;795;49.296;11.348;2023-02-17T04:07:39;96972.50;;;5.97;100.00
30339;BME280;795;49.296;11.348;2023-02-17T04:10:07;96961.03;;;5.74;100.00
30339;BME280;795;49.296;11.348;2023-02-17T04:12:35;96992.91;;;5.87;100.00
30339;BME280;795;49.296;11.348;2023-02-17T04:15:03;96995.56;;;5.87;100.00
30339;BME280;795;49.296;11.348;2023-02-17T04:17:30;96973.41;;;5.75;100.00
30339;BME280;795;49.296;11.348;2023-02-17T04:19:57;96996.75;;;5.83;100.00
30339;BME280;795;49.296;11.348;2023-02-17T04:22:24;96977.78;;;5.65;100.00
30339;BME280;795;49.296;11.348;2023-02-17T04:24:51;96968.84;;;5.66;100.00
30339;BME280;795;49.296;11.348;2023-02-17T04:27:17;96993.75;;;5.76;100.00
30339;BME280;795;49.296;11.348;2023-02-17T04:29:44;96975.38;;;5.62;100.00
30339;BME280;795;49.296;11.348;2023-02-17T04:32:11;96951.78;;;5.58;100.00
30339;BME280;795;49.296;11.348;2023-02-17T04:34:38;96994.06;;;5.94;100.00
30339;BME280;795;49.296;11.348;2023-02-17T04:37:06;96952.34;;;5.72;100.00
30339;BME280;795;49.296;11.348;2023-02-17T04:39:33;96971.75;;;5.63;100.00
30339;BME280;795;49.296;11.348;2023-02-17T04:42:00;96971.78;;;5.84;100.00
30339;BME280;795;49.296;11.348;2023-02-17T04:44:26;96936.34;;;5.72;100.00
30339;BME280;795;49.296;11.348;2023-02-17T04:46:53;96977.63;;;5.89;100.00
30339;BME280;795;49.296;11.348;2023-02-17T04:49:20;96939.91;;;5.62;100.00
30339;BME280;795;49.296;11.348;2023-02-17T04:51:47;96986.47;;;5.89;100.00
30339;BME280;795;49.296;11.348;2023-02-17T04:54:14;96979.91;;;5.82;100.00
30339;BME280;795;49.296;11.348;2023-02-17T04:56:41;96979.06;;;5.82;100.00
30339;BME280;795;49.296;11.348;2023-02-17T04:59:08;96989.38;;;5.86;100.00
30339;BME280;795;49.296;11.348;2023-02-17T05:01:35;96956.81;;;5.72;100.00
30339;BME280;795;49.296;11.348;2023-02-17T05:04:02;96956.72;;;5.62;100.00
30339;BME280;795;49.296;11.348;2023-02-17T05:06:29;96998.81;;;5.79;100.00
30339;BME280;795;49.296;11.348;2023-02-17T05:08:56;97001.50;;;5.90;100.00
30339;BME280;795;49.296;11.348;2023-02-17T05:11:23;96965.03;;;5.80;100.00
30339;BME280;795;49.296;11.348;2023-02-17T05:13:51;96968.66;;;5.79;100.00
30339;BME280;795;49.296;11.348;2023-02-17T05:16:18;96959.84;;;5.78;100.00
30339;BME280;795;49.296;11.348;2023-02-17T05:18:45;96968.06;;;5.86;100.00
30339;BME280;795;49.296;11.348;2023-02-17T05:21:12;96985.38;;;5.92;100.00
30339;BME280;795;49.296;11.348;2023-02-17T05:23:39;96977.03;;;5.74;100.00
30339;BME280;795;49.296;11.348;2023-02-17T05:26:09;96981.47;;;5.96;100.00
30339;BME280;795;49.296;11.348;2023-02-17T05:28:37;96986.22;;;5.92;100.00
30339;BME280;795;49.296;11.348;2023-02-17T05:31:04;96996.84;;;6.03;100.00
30339;BME280;795;49.296;11.348;2023-02-17T05:33:32;96963.47;;;5.88;100.00
30339;BME280;795;49.296;11.348;2023-02-17T05:36:09;96969.25;;;5.82;100.00
30339;BME280;795;49.296;11.348;2023-02-17T05:38:38;96954.03;;;5.73;100.00
30339;BME280;795;49.296;11.348;2023-02-17T05:41:06;96946.28;;;5.70;100.00
30339;BME280;795;49.296;11.348;2023-02-17T05:43:33;96936.50;;;5.71;100.00
30339;BME280;795;49.296;11.348;2023-02-17T05:46:05;96967.56;;;5.92;100.00
30339;BME280;795;49.296;11.348;2023-02-17T05:48:33;96984.81;;;6.09;100.00
30339;BME280;795;49.296;11.348;2023-02-17T05:51:00;96953.44;;;6.13;100.00
30339;BME280;795;49.296;11.348;2023-02-17T05:53:27;96961.69;;;6.30;100.00
30339;BME280;795;49.296;11.348;2023-02-17T05:55:54;96927.56;;;6.24;100.00
30339;BME280;795;49.296;11.348;2023-02-17T05:58:21;96907.59;;;6.19;100.00
30339;BME280;795;49.296;11.348;2023-02-17T06:00:48;96952.00;;;6.50;100.00
30339;BME280;795;49.296;11.348;2023-02-17T06:03:15;96956.19;;;6.63;100.00
30339;BME280;795;49.296;11.348;2023-02-17T06:05:44;96944.06;;;6.59;100.00
30339;BME280;795;49.296;11.348;2023-02-17T06:08:11;96967.66;;;6.85;100.00
30339;BME280;795;49.296;11.348;2023-02-17T06:10:40;96958.94;;;6.83;100.00
30339;BME280;795;49.296;11.348;2023-02-17T06:13:07;96958.53;;;6.87;100.00
30339;BME280;795;49.296;11.348;2023-02-17T06:15:34;96970.81;;;6.99;100.00
30339;BME280;795;49.296;11.348;2023-02-17T06:18:01;96980.94;;;7.05;100.00
30339;BME280;795;49.296;11.348;2023-02-17T06:20:28;96972.94;;;7.05;100.00
30339;BME280;795;49.296;11.348;2023-02-17T06:22:55;96967.84;;;7.23;100.00
30339;BME280;795;49.296;11.348;2023-02-17T06:25:22;96974.13;;;7.22;100.00
30339;BME280;795;49.296;11.348;2023-02-17T06:27:48;96970.28;;;7.35;100.00
30339;BME280;795;49.296;11.348;2023-02-17T06:30:15;96962.38;;;7.34;100.00
30339;BME280;795;49.296;11.348;2023-02-17T06:32:43;96963.81;;;7.38;100.00
30339;BME280;795;49.296;11.348;2023-02-17T06:35:10;96951.44;;;7.37;100.00
30339;BME280;795;49.296;11.348;2023-02-17T06:37:37;96973.41;;;7.50;100.00
30339;BME280;795;49.296;11.348;2023-02-17T06:40:05;96969.31;;;7.46;100.00
30339;BME280;795;49.296;11.348;2023-02-17T06:42:32;96947.59;;;7.20;100.00
30339;BME280;795;49.296;11.348;2023-02-17T06:44:59;96961.47;;;7.14;100.00
30339;BME280;795;49.296;11.348;2023-02-17T06:47:29;96963.91;;;7.27;100.00
30339;BME280;795;49.296;11.348;2023-02-17T06:49:56;96979.25;;;7.34;100.00
30339;BME280;795;49.296;11.348;2023-02-17T06:52:23;96957.75;;;7.26;100.00
30339;BME280;795;49.296;11.348;2023-02-17T06:54:49;96986.78;;;7.60;100.00
30339;BME280;795;49.296;11.348;2023-02-17T06:57:17;96986.66;;;7.61;100.00
30339;BME280;795;49.296;11.348;2023-02-17T06:59:44;96980.63;;;7.69;100.00
30339;BME280;795;49.296;11.348;2023-02-17T07:02:13;96988.81;;;7.77;100.00
30339;BME280;795;49.296;11.348;2023-02-17T07:04:41;96946.56;;;7.61;100.00
30339;BME280;795;49.296;11.348;2023-02-17T07:07:09;96950.97;;;7.72;100.00
30339;BME280;795;49.296;11.348;2023-02-17T07:09:37;96984.63;;;8.03;100.00
30339;BME280;795;49.296;11.348;2023-02-17T07:12:05;96939.16;;;7.93;100.00
30339;BME280;795;49.296;11.348;2023-02-17T07:14:34;96971.94;;;8.05;99.38
30339;BME280;795;49.296;11.348;2023-02-17T07:17:01;96980.13;;;8.23;99.54
30339;BME280;795;49.296;11.348;2023-02-17T07:19:28;96974.94;;;8.31;97.59
30339;BME280;795;49.296;11.348;2023-02-17T07:21:56;96977.63;;;8.40;98.45
30339;BME280;795;49.296;11.348;2023-02-17T07:24:23;96986.06;;;8.36;97.80
30339;BME280;795;49.296;11.348;2023-02-17T07:26:50;96976.91;;;8.38;96.83
30339;BME280;795;49.296;11.348;2023-02-17T07:29:19;96995.34;;;8.60;95.30
30339;BME280;795;49.296;11.348;2023-02-17T07:31:46;97003.09;;;8.63;95.83
30339;BME280;795;49.296;11.348;2023-02-17T07:34:13;96968.31;;;8.54;95.60
30339;BME280;795;49.296;11.348;2023-02-17T07:36:40;96942.84;;;8.40;94.71
30339;BME280;795;49.296;11.348;2023-02-17T07:39:07;96964.78;;;8.53;96.25
30339;BME280;795;49.296;11.348;2023-02-17T07:41:34;96978.31;;;8.61;96.34
30339;BME280;795;49.296;11.348;2023-02-17T07:44:01;96994.50;;;8.79;96.20
30339;BME280;795;49.296;11.348;2023-02-17T07:46:28;96994.06;;;8.74;95.02
30339;BME280;795;49.296;11.348;2023-02-17T07:48:57;96995.72;;;8.85;95.45
30339;BME280;795;49.296;11.348;2023-02-17T07:51:24;96986.84;;;8.75;96.02
30339;BME280;795;49.296;11.348;2023-02-17T07:53:52;96987.59;;;8.77;97.22
30339;BME280;795;49.296;11.348;2023-02-17T07:56:21;96987.81;;;8.93;96.45
30339;BME280;795;49.296;11.348;2023-02-17T07:58:49;96972.19;;;8.88;96.05
30339;BME280;795;49.296;11.348;2023-02-17T08:01:23;96959.75;;;8.97;95.58
30339;BME280;795;49.296;11.348;2023-02-17T08:03:51;96987.88;;;9.20;94.86
30339;BME280;795;49.296;11.348;2023-02-17T08:06:22;96999.25;;;9.31;95.18
30339;BME280;795;49.296;11.348;2023-02-17T08:08:52;96995.06;;;9.56;94.36
30339;BME280;795;49.296;11.348;2023-02-17T08:11:40;96992.38;;;9.56;93.46
30339;BME280;795;49.296;11.348;2023-02-17T08:14:30;96976.66;;;9.71;92.47
30339;BME280;795;49.296;11.348;2023-02-17T08:16:59;97009.22;;;9.76;93.51
30339;BME280;795;49.296;11.348;2023-02-17T08:19:26;96978.78;;;9.67;93.69
30339;BME280;795;49.296;11.348;2023-02-17T08:22:12;96986.06;;;9.75;94.22
30339;BME280;795;49.296;11.348;2023-02-17T08:24:39;96975.81;;;9.70;94.24
30339;BME280;795;49.296;11.348;2023-02-17T08:27:06;96987.78;;;9.76;95.22
30339;BME280;795;49.296;11.348;2023-02-17T08:29:32;96961.91;;;9.57;95.91
30339;BME280;795;49.296;11.348;2023-02-17T08:31:59;96968.66;;;9.61;96.52
30339;BME280;795;49.296;11.348;2023-02-17T08:34:27;96959.03;;;9.68;96.87
30339;BME280;795;49.296;11.348;2023-02-17T08:36:54;96996.09;;;10.00;96.30
30339;BME280;795;49.296;11.348;2023-02-17T08:39:21;96988.19;;;9.98;96.97
30339;BME280;795;49.296;11.348;2023-02-17T08:41:48;96931.84;;;9.81;95.67
30339;BME280;795;49.296;11.348;2023-02-17T08:44:18;96999.13;;;10.15;96.42
30339;BME280;795;49.296;11.348;2023-02-17T08:46:49;96963.28;;;10.06;96.55
30339;BME280;795;49.296;11.348;2023-02-17T08:49:24;96989.47;;;10.22;95.48
30339;BME280;795;49.296;11.348;2023-02-17T08:51:52;96987.47;;;10.24;94.95
30339;BME280;795;49.296;11.348;2023-02-17T08:54:19;96975.97;;;10.14;95.14
30339;BME280;795;49.296;11.348;2023-02-17T08:56:46;96975.81;;;10.15;95.09
30339;BME280;795;49.296;11.348;2023-02-17T08:59:14;96994.31;;;10.36;94.76
30339;BME280;795;49.296;11.348;2023-02-17T09:03:55;96985.69;;;10.32;95.02
30339;BME280;795;49.296;11.348;2023-02-17T09:06:23;97002.50;;;10.52;94.14
30339;BME280;795;49.296;11.348;2023-02-17T09:08:56;96985.31;;;10.45;93.48
30339;BME280;795;49.296;11.348;2023-02-17T09:11:23;96979.88;;;10.37;94.38
30339;BME280;795;49.296;11.348;2023-02-17T09:13:50;96993.38;;;10.27;94.98
30339;BME280;795;49.296;11.348;2023-02-17T09:16:17;96985.09;;;10.21;95.98
30339;BME280;795;49.296;11.348;2023-02-17T09:18:46;96992.97;;;10.22;96.97
30339;BME280;795;49.296;11.348;2023-02-17T09:21:13;97002.50;;;10.17;97.93
30339;BME280;795;49.296;11.348;2023-02-17T09:23:40;96994.59;;;10.15;97.91
30339;BME280;795;49.296;11.348;2023-02-17T09:26:11;97001.34;;;10.19;99.17
30339;BME280;795;49.296;11.348;2023-02-17T09:28:38;97007.88;;;10.17;99.02
30339;BME280;795;49.296;11.348;2023-02-17T09:31:20;97007.19;;;10.15;99.82
30339;BME280;795;49.296;11.348;2023-02-17T09:33:49;97020.38;;;10.26;99.72
30339;BME280;795;49.296;11.348;2023-02-17T09:36:26;97016.69;;;10.27;99.09
30339;BME280;795;49.296;11.348;2023-02-17T09:38:55;96997.44;;;10.14;100.00
30339;BME280;795;49.296;11.348;2023-02-17T09:41:45;97002.66;;;10.33;100.00
30339;BME280;795;49.296;11.348;2023-02-17T09:44:23;97021.59;;;10.31;100.00
30339;BME280;795;49.296;11.348;2023-02-17T09:47:04;97012.59;;;10.23;100.00
30339;BME280;795;49.296;11.348;2023-02-17T09:49:46;96991.78;;;10.17;100.00
30339;BME280;795;49.296;11.348;2023-02-17T09:52:40;97004.66;;;10.31;100.00
30339;BME280;795;49.296;11.348;2023-02-17T09:55:21;96941.81;;;9.88;100.00
30339;BME280;795;49.296;11.348;2023-02-17T09:58:10;96977.97;;;10.12;100.00
30339;BME280;795;49.296;11.348;2023-02-17T10:00:53;97014.53;;;10.30;100.00
30339;BME280;795;49.296;11.348;2023-02-17T10:06:36;97012.47;;;10.24;100.00
30339;BME280;795;49.296;11.348;2023-02-17T10:12:07;97006.59;;;10.11;100.00
30339;BME280;795;49.296;11.348;2023-02-17T10:14:48;97022.84;;;10.10;100.00
30339;BME280;795;49.296;11.348;2023-02-17T10:20:34;96998.41;;;10.13;100.00
30339;BME280;795;49.296;11.348;2023-02-17T10:23:18;97014.69;;;10.29;100.00
30339;BME280;795;49.296;11.348;2023-02-17T10:29:41;97021.75;;;10.30;100.00
30339;BME280;795;49.296;11.348;2023-02-17T10:32:26;97020.00;;;10.11;100.00
30339;BME280;795;49.296;11.348;2023-02-17T10:35:21;97027.34;;;10.19;100.00
30339;BME280;795;49.296;11.348;2023-02-17T10:38:36;97027.38;;;10.09;100.00
30339;BME280;795;49.296;11.348;2023-02-17T10:41:16;97010.88;;;10.04;100.00
30339;BME280;795;49.296;11.348;2023-02-17T10:43:47;96984.28;;;9.93;100.00
30339;BME280;795;49.296;11.348;2023-02-17T10:46:26;96995.47;;;10.06;100.00
30339;BME280;795;49.296;11.348;2023-02-17T10:48:57;96983.75;;;10.07;100.00
30339;BME280;795;49.296;11.348;2023-02-17T10:51:30;96978.06;;;10.10;100.00
30339;BME280;795;49.296;11.348;2023-02-17T10:54:33;96994.22;;;10.28;100.00
30339;BME280;795;49.296;11.348;2023-02-17T10:57:07;96992.69;;;10.43;100.00
30339;BME280;795;49.296;11.348;2023-02-17T10:59:44;96965.56;;;10.28;100.00
30339;BME280;795;49.296;11.348;2023-02-17T11:02:37;96982.84;;;10.51;100.00
30339;BME280;795;49.296;11.348;2023-02-17T11:05:06;96990.81;;;10.61;100.00
30339;BME280;795;49.296;11.348;2023-02-17T11:07:41;96979.88;;;10.54;100.00
30339;BME280;795;49.296;11.348;2023-02-17T11:10:33;96997.88;;;10.62;100.00
30339;BME280;795;49.296;11.348;2023-02-17T11:13:01;96976.03;;;10.39;100.00
30339;BME280;795;49.296;11.348;2023-02-17T11:15:41;97000.19;;;10.39;100.00
30339;BME280;795;49.296;11.348;2023-02-17T11:18:20;96963.41;;;10.32;100.00
30339;BME280;795;49.296;11.348;2023-02-17T11:21:03;96981.19;;;10.50;100.00
30339;BME280;795;49.296;11.348;2023-02-17T11:23:32;96976.81;;;10.49;100.00
30339;BME280;795;49.296;11.348;2023-02-17T11:26:22;96965.59;;;10.54;100.00
30339;BME280;795;49.296;11.348;2023-02-17T11:28:49;96960.78;;;10.57;100.00
30339;BME280;795;49.296;11.348;2023-02-17T11:31:29;96972.88;;;10.61;100.00
30339;BME280;795;49.296;11.348;2023-02-17T11:33:57;96952.50;;;10.51;100.00
30339;BME280;795;49.296;11.348;2023-02-17T11:36:30;96962.41;;;10.50;100.00
30339;BME280;795;49.296;11.348;2023-02-17T11:38:58;96955.69;;;10.72;100.00
30339;BME280;795;49.296;11.348;2023-02-17T11:41:26;96948.81;;;10.52;100.00
30339;BME280;795;49.296;11.348;2023-02-17T11:44:04;96951.97;;;10.47;100.00
30339;BME280;795;49.296;11.348;2023-02-17T11:46:45;96953.66;;;10.48;100.00
30339;BME280;795;49.296;11.348;2023-02-17T11:52:47;96948.03;;;10.42;100.00
30339;BME280;795;49.296;11.348;2023-02-17T11:55:32;96930.03;;;10.34;100.00
30339;BME280;795;49.296;11.348;2023-02-17T11:58:55;96931.22;;;10.32;100.00
30339;BME280;795;49.296;11.348;2023-02-17T12:02:12;96950.69;;;10.34;100.00
30339;BME280;795;49.296;11.348;2023-02-17T12:11:36;96959.66;;;9.53;100.00
30339;BME280;795;49.296;11.348;2023-02-17T12:14:46;96979.84;;;9.47;100.00
30339;BME280;795;49.296;11.348;2023-02-17T12:17:52;96973.00;;;9.35;100.00
30339;BME280;795;49.296;11.348;2023-02-17T12:20:53;96980.66;;;9.20;100.00
30339;BME280;795;49.296;11.348;2023-02-17T12:24:23;97001.44;;;9.09;100.00
30339;BME280;795;49.296;11.348;2023-02-17T12:30:55;97000.06;;;9.05;100.00
30339;BME280;795;49.296;11.348;2023-02-17T12:36:28;97019.47;;;9.16;100.00
30339;BME280;795;49.296;11.348;2023-02-17T12:39:10;97028.06;;;9.20;100.00
30339;BME280;795;49.296;11.348;2023-02-17T12:42:27;97028.78;;;9.12;100.00
30339;BME280;795;49.296;11.348;2023-02-17T12:45:06;97024.84;;;9.07;100.00
30339;BME280;795;49.296;11.348;2023-02-17T12:47:59;97018.09;;;9.03;100.00
30339;BME280;795;49.296;11.348;2023-02-17T12:50:38;97032.88;;;9.07;100.00
30339;BME280;795;49.296;11.348;2023-02-17T12:53:22;97034.44;;;9.09;100.00
30339;BME280;795;49.296;11.348;2023-02-17T12:55:58;97008.22;;;8.94;100.00
30339;BME280;795;49.296;11.348;2023-02-17T12:58:28;97025.53;;;9.09;100.00
30339;BME280;795;49.296;11.348;2023-02-17T13:01:10;97000.78;;;8.97;100.00
30339;BME280;795;49.296;11.348;2023-02-17T13:03:39;97029.66;;;9.13;100.00
30339;BME280;795;49.296;11.348;2023-02-17T13:06:33;97016.41;;;9.02;100.00
30339;BME280;795;49.296;11.348;2023-02-17T13:11:44;97004.03;;;9.01;100.00
30339;BME280;795;49.296;11.348;2023-02-17T13:14:44;96999.88;;;9.16;100.00
30339;BME280;795;49.296;11.348;2023-02-17T13:17:38;96973.16;;;8.97;100.00
30339;BME280;795;49.296;11.348;2023-02-17T13:22:43;97014.81;;;9.18;100.00
30339;BME280;795;49.296;11.348;2023-02-17T13:27:53;97002.94;;;9.21;100.00
30339;BME280;795;49.296;11.348;2023-02-17T13:33:28;97003.81;;;9.21;100.00
30339;BME280;795;49.296;11.348;2023-02-17T13:35:55;96998.16;;;9.24;100.00
30339;BME280;795;49.296;11.348;2023-02-17T13:38:32;97005.75;;;9.29;100.00
30339;BME280;795;49.296;11.348;2023-02-17T13:41:05;97004.00;;;9.38;100.00
30339;BME280;795;49.296;11.348;2023-02-17T13:43:41;96997.78;;;9.47;100.00
30339;BME280;795;49.296;11.348;2023-02-17T13:46:21;96961.16;;;9.38;100.00
30339;BME280;795;49.296;11.348;2023-02-17T13:49:22;96970.94;;;9.56;100.00
30339;BME280;795;49.296;11.348;2023-02-17T13:51:49;96983.69;;;9.72;100.00
30339;BME280;795;49.296;11.348;2023-02-17T13:54:21;96962.91;;;9.74;100.00
30339;BME280;795;49.296;11.348;2023-02-17T13:56:52;96973.00;;;9.89;100.00
30339;BME280;795;49.296;11.348;2023-02-17T13:59:26;96948.25;;;9.95;100.00
30339;BME280;795;49.296;11.348;2023-02-17T14:01:54;96936.53;;;9.96;100.00
30339;BME280;795;49.296;11.348;2023-02-17T14:04:30;96918.13;;;10.01;100.00
30339;BME280;795;49.296;11.348;2023-02-17T14:07:02;96922.31;;;10.14;100.00
30339;BME280;795;49.296;11.348;2023-02-17T14:09:33;96910.78;;;10.03;100.00
30339;BME280;795;49.296;11.348;2023-02-17T14:12:05;96930.19;;;10.15;100.00
30339;BME280;795;49.296;11.348;2023-02-17T14:14:37;96908.09;;;10.03;100.00
30339;BME280;795;49.296;11.348;2023-02-17T14:17:27;96934.50;;;10.26;100.00
30339;BME280;795;49.296;11.348;2023-02-17T14:19:54;96941.47;;;10.36;100.00
30339;BME280;795;49.296;11.348;2023-02-17T14:22:31;96938.63;;;10.38;100.00
30339;BME280;795;49.296;11.348;2023-02-17T14:25:07;96922.69;;;10.36;100.00
30339;BME280;795;49.296;11.348;2023-02-17T14:27:48;96931.47;;;10.46;100.00
30339;BME280;795;49.296;11.348;2023-02-17T14:30:38;96930.88;;;10.52;100.00
30339;BME280;795;49.296;11.348;2023-02-17T14:36:00;96918.69;;;10.66;100.00
30339;BME280;795;49.296;11.348;2023-02-17T14:38:40;96917.91;;;10.74;100.00
30339;BME280;795;49.296;11.348;2023-02-17T14:41:08;96919.44;;;10.76;100.00
30339;BME280;795;49.296;11.348;2023-02-17T14:43:36;96909.19;;;10.72;100.00
30339;BME280;795;49.296;11.348;2023-02-17T14:46:03;96919.81;;;10.81;100.00
30339;BME280;795;49.296;11.348;2023-02-17T14:48:35;96890.06;;;10.75;100.00